Glendo, Wyoming
Current Conditions -  °F | °C
As of 7:15 AM on Friday 24 Oct 2014 (Local Time) from KGUR Reporting Station
Clear Clear  
Wind Chill: 62°   Ceiling: Unl
Heat Index: 62°   Visibility: 10mi
Dew Point: 35°   Wind: 5mph
Humidity: 37%   Direction: 260°W
Pressure: 30.06"   Gusts: NA
Location:  42.5°N, 105.03°W
Report Text: KGUR 241315Z AUTO 26004KT 10SM CLR 16/02 A3006 RMK AO2 T01640017
Loading
Personal Weather Stations






























Interactive Weather Map
Tropical Storm Tracking
New forecast layout! Learn more

10-Day Weather Forecast

Advertisements
Track Severe Weather on mobile